Time;durP1;ratioP1;P1;durP2;ratioP2;P2;SDS_P1;SDS_P2;PMS_P1;PMS_P2;Temp;Humidity;BMP_temperature;BMP_pressure;BME280_temperature;BME280_humidity;BME280_pressure;Samples;Min_cycle;Max_cycle;Signal;HPM_P1;HPM_P2
2021/09/08 00:00:49;;;;;;;37.58;19.60;;;;;;;16.00;100.00;101869.91;5177988;28;20029;-79
2021/09/08 00:03:19;;;;;;;37.40;20.13;;;;;;;15.94;100.00;101862.50;5177244;28;20065;-79
2021/09/08 00:05:50;;;;;;;35.58;20.20;;;;;;;15.87;100.00;101858.81;5183041;28;20018;-79
2021/09/08 00:08:21;;;;;;;33.05;18.25;;;;;;;15.79;100.00;101854.28;5180648;28;20060;-79
2021/09/08 00:10:52;;;;;;;38.83;19.95;;;;;;;15.74;100.00;101855.81;5171796;28;20029;-78
2021/09/08 00:13:24;;;;;;;40.25;20.35;;;;;;;15.71;100.00;101857.03;5178836;28;20026;-78
2021/09/08 00:15:56;;;;;;;42.03;21.20;;;;;;;15.70;100.00;101857.19;5173414;28;20037;-78
2021/09/08 00:18:26;;;;;;;37.03;19.55;;;;;;;15.67;100.00;101855.69;5169047;28;20072;-79
2021/09/08 00:20:57;;;;;;;36.33;20.52;;;;;;;15.66;100.00;101850.44;5169386;28;20027;-79
2021/09/08 00:23:27;;;;;;;35.20;18.50;;;;;;;15.62;100.00;101855.34;5175428;28;20434;-78
2021/09/08 00:25:57;;;;;;;42.53;20.45;;;;;;;15.61;100.00;101848.22;5173577;28;20053;-78
2021/09/08 00:28:28;;;;;;;39.55;19.38;;;;;;;15.58;100.00;101851.31;5169804;28;20034;-78
2021/09/08 00:30:58;;;;;;;37.95;20.17;;;;;;;15.53;100.00;101850.97;5168221;28;20018;-78
2021/09/08 00:33:29;;;;;;;35.25;19.13;;;;;;;15.47;100.00;101838.16;5173926;28;20109;-78
2021/09/08 00:35:59;;;;;;;38.78;21.08;;;;;;;15.43;100.00;101839.53;5174956;28;20109;-79
2021/09/08 00:38:30;;;;;;;33.13;18.45;;;;;;;15.39;100.00;101838.19;5171435;28;20037;-78
2021/09/08 00:41:00;;;;;;;33.17;18.98;;;;;;;15.36;100.00;101831.28;5164755;28;20066;-79
2021/09/08 00:43:31;;;;;;;35.78;19.45;;;;;;;15.33;100.00;101833.47;5161771;28;20026;-78
2021/09/08 00:46:01;;;;;;;37.00;20.35;;;;;;;15.27;100.00;101835.00;5174408;28;20065;-78
2021/09/08 00:48:32;;;;;;;34.80;18.65;;;;;;;15.23;100.00;101839.06;5171267;28;20030;-79
2021/09/08 00:51:03;;;;;;;35.78;19.27;;;;;;;15.17;100.00;101834.34;5161258;28;20316;-78
2021/09/08 00:53:34;;;;;;;39.67;20.35;;;;;;;15.11;100.00;101829.63;5164003;28;20056;-78
2021/09/08 00:56:08;;;;;;;38.83;21.08;;;;;;;15.07;100.00;101831.00;5172229;28;20026;-78
2021/09/08 00:58:38;;;;;;;37.53;19.98;;;;;;;15.04;100.00;101824.06;5162005;28;20030;-78
2021/09/08 01:01:09;;;;;;;39.38;19.73;;;;;;;15.02;100.00;101828.81;5171855;28;20091;-79
2021/09/08 01:03:39;;;;;;;42.72;21.05;;;;;;;15.00;100.00;101823.56;5164743;28;20033;-79
2021/09/08 01:06:22;;;;;;;37.00;20.17;;;;;;;14.96;100.00;101818.66;5161099;28;20341;-79
2021/09/08 01:09:04;;;;;;;38.10;21.13;;;;;;;14.94;100.00;101823.41;5161357;28;20033;-79
2021/09/08 01:11:35;;;;;;;41.05;21.42;;;;;;;14.88;100.00;101814.13;5174684;28;20033;-79
2021/09/08 01:14:09;;;;;;;35.83;20.35;;;;;;;14.87;100.00;101825.13;5161746;28;20118;-79
2021/09/08 01:16:40;;;;;;;39.63;20.90;;;;;;;14.83;100.00;101823.78;5178710;28;20108;-79
2021/09/08 01:19:24;;;;;;;35.58;19.85;;;;;;;14.79;100.00;101825.97;5167352;28;20441;-79
2021/09/08 01:21:54;;;;;;;36.08;19.92;;;;;;;14.77;100.00;101823.44;5168863;28;20044;-79
2021/09/08 01:24:40;;;;;;;39.63;21.42;;;;;;;14.77;100.00;101823.44;5172890;28;20037;-78
2021/09/08 01:27:11;;;;;;;38.67;21.05;;;;;;;14.79;100.00;101823.25;5175006;28;20034;-78
2021/09/08 01:29:41;;;;;;;43.17;21.98;;;;;;;14.81;100.00;101823.06;5178919;28;20029;-78
2021/09/08 01:32:12;;;;;;;43.95;22.35;;;;;;;14.80;100.00;101816.00;5165936;28;20029;-78
2021/09/08 01:34:42;;;;;;;43.00;22.08;;;;;;;14.76;100.00;101821.75;5172364;28;20072;-78
2021/09/08 01:37:13;;;;;;;37.70;20.83;;;;;;;14.72;100.00;101827.66;5186400;28;20032;-78
2021/09/08 01:39:43;;;;;;;45.83;23.02;;;;;;;14.65;100.00;101816.66;5167621;28;20062;-79
2021/09/08 01:42:15;;;;;;;36.28;21.35;;;;;;;14.58;100.00;101815.69;5164630;28;20439;-78
2021/09/08 01:44:45;;;;;;;41.65;22.40;;;;;;;14.51;100.00;101817.38;5174662;28;20026;-78
2021/09/08 01:47:16;;;;;;;41.85;22.05;;;;;;;14.47;100.00;101810.59;5173054;28;20053;-79
2021/09/08 01:49:47;;;;;;;38.42;21.50;;;;;;;14.44;100.00;101817.16;5172669;28;20030;-78
2021/09/08 01:52:19;;;;;;;40.80;22.40;;;;;;;14.43;100.00;101806.53;5183696;28;20097;-79
2021/09/08 01:54:49;;;;;;;40.08;21.13;;;;;;;14.38;100.00;101812.44;5174929;28;20026;-78
2021/09/08 01:57:20;;;;;;;42.42;22.48;;;;;;;14.37;100.00;101813.44;5166493;28;20084;-79
2021/09/08 01:59:50;;;;;;;38.95;21.13;;;;;;;14.35;100.00;101806.50;5178568;28;20054;-78
2021/09/08 02:02:21;;;;;;;36.15;19.30;;;;;;;14.34;100.00;101812.94;5172587;28;20129;-78
2021/09/08 02:04:52;;;;;;;40.50;22.23;;;;;;;14.29;100.00;101813.44;5185505;28;20037;-78
2021/09/08 02:07:26;;;;;;;36.92;20.80;;;;;;;14.24;100.00;101802.28;5186472;28;20030;-78
2021/09/08 02:09:57;;;;;;;40.67;21.60;;;;;;;14.17;100.00;101799.44;5183619;28;20025;-78
2021/09/08 02:12:27;;;;;;;40.67;21.70;;;;;;;14.13;100.00;101799.91;5176366;28;20057;-79
2021/09/08 02:15:09;;;;;;;40.38;23.98;;;;;;;14.09;100.00;101807.50;5178548;28;20023;-78
2021/09/08 02:17:41;;;;;;;41.38;22.77;;;;;;;14.06;100.00;101815.09;5178714;28;20450;-79
2021/09/08 02:20:12;;;;;;;42.20;22.95;;;;;;;13.99;100.00;101810.34;5178567;28;20026;-78
2021/09/08 02:22:43;;;;;;;45.75;24.17;;;;;;;13.95;100.00;101811.66;5167049;28;20058;-78
2021/09/08 02:25:13;;;;;;;43.83;23.33;;;;;;;13.95;100.00;101800.03;5185727;28;20022;-78
2021/09/08 02:27:44;;;;;;;42.45;22.55;;;;;;;13.94;100.00;101803.75;5170230;28;20030;-79
2021/09/08 02:30:15;;;;;;;47.85;22.92;;;;;;;13.93;100.00;101807.47;5165113;28;20022;-79
2021/09/08 02:32:45;;;;;;;48.08;23.73;;;;;;;13.91;100.00;101806.81;5169409;28;20033;-78
2021/09/08 02:35:16;;;;;;;50.33;23.25;;;;;;;13.91;100.00;101804.09;5185926;28;20430;-79
2021/09/08 02:37:46;;;;;;;46.95;25.00;;;;;;;13.91;100.00;101804.94;5166951;28;20038;-79
2021/09/08 02:40:17;;;;;;;42.90;22.52;;;;;;;13.89;100.00;101803.41;5176552;28;20402;-79
2021/09/08 02:42:47;;;;;;;44.75;22.90;;;;;;;13.88;100.00;101801.72;5172839;28;20036;-79
2021/09/08 02:45:18;;;;;;;41.67;23.38;;;;;;;13.83;100.00;101802.22;5172314;28;20034;-79
2021/09/08 02:47:48;;;;;;;38.83;21.90;;;;;;;13.82;100.00;101799.69;5171105;28;20026;-78
2021/09/08 02:50:19;;;;;;;44.47;22.95;;;;;;;13.81;100.00;101803.41;5183961;28;20029;-79
2021/09/08 02:52:49;;;;;;;43.35;23.42;;;;;;;13.78;100.00;101803.72;5176617;28;20033;-79
2021/09/08 02:55:20;;;;;;;47.88;24.20;;;;;;;13.76;100.00;101798.50;5175158;28;20496;-78
2021/09/08 02:57:50;;;;;;;41.85;23.52;;;;;;;13.75;100.00;101796.78;5178927;28;20031;-78
2021/09/08 03:00:21;;;;;;;45.72;24.23;;;;;;;13.72;100.00;101797.13;5178920;28;20054;-79
2021/09/08 03:02:51;;;;;;;47.95;25.60;;;;;;;13.68;100.00;101791.22;5179355;28;20018;-79
2021/09/08 03:05:22;;;;;;;42.65;24.10;;;;;;;13.65;100.00;101790.69;5170254;28;20057;-79
2021/09/08 03:07:52;;;;;;;45.58;25.20;;;;;;;13.62;100.00;101791.88;5180900;28;20121;-79
2021/09/08 03:10:23;;;;;;;42.65;23.85;;;;;;;13.60;100.00;101791.16;5173460;28;20049;-79
2021/09/08 03:12:53;;;;;;;46.35;24.50;;;;;;;13.60;100.00;101790.34;5188206;28;20481;-79
2021/09/08 03:15:24;;;;;;;48.20;25.58;;;;;;;13.60;100.00;101788.47;5175587;28;20040;-78
2021/09/08 03:17:54;;;;;;;45.10;23.38;;;;;;;13.61;100.00;101790.19;5188056;28;20068;-78
2021/09/08 03:20:25;;;;;;;50.08;25.33;;;;;;;13.61;100.00;101787.50;5179661;28;20027;-79
2021/09/08 03:22:55;;;;;;;41.08;22.08;;;;;;;13.59;100.00;101786.78;5169178;28;20384;-78
2021/09/08 03:25:27;;;;;;;48.00;23.85;;;;;;;13.55;100.00;101782.72;5183819;28;20023;-78
2021/09/08 03:27:58;;;;;;;48.17;24.13;;;;;;;13.54;100.00;101786.44;5180539;28;20030;-78
2021/09/08 03:30:28;;;;;;;49.88;24.48;;;;;;;13.52;100.00;101785.78;5167749;28;20026;-79
2021/09/08 03:32:59;;;;;;;52.75;25.38;;;;;;;13.48;100.00;101782.53;5187505;28;20034;-79
2021/09/08 03:35:30;;;;;;;48.80;23.75;;;;;;;13.46;100.00;101783.72;5175063;28;20314;-79
2021/09/08 03:38:00;;;;;;;48.72;24.77;;;;;;;13.47;100.00;101782.72;5181562;28;20046;-79
2021/09/08 03:40:31;;;;;;;53.45;25.20;;;;;;;13.45;100.00;101782.03;5166539;28;20061;-78
2021/09/08 03:43:01;;;;;;;46.03;24.42;;;;;;;13.44;100.00;101786.56;5182578;28;20084;-78
2021/09/08 03:45:32;;;;;;;45.78;24.05;;;;;;;13.44;100.00;101783.03;5180083;28;20491;-78
2021/09/08 03:48:03;;;;;;;47.92;24.05;;;;;;;13.39;100.00;101779.97;5183193;28;20034;-78
2021/09/08 03:50:34;;;;;;;47.97;24.23;;;;;;;13.36;100.00;101775.78;5173487;28;20061;-79
2021/09/08 03:53:05;;;;;;;53.42;26.73;;;;;;;13.33;100.00;101769.84;5202036;28;20052;-79
2021/09/08 03:55:35;;;;;;;47.30;25.35;;;;;;;13.31;100.00;101766.50;5173611;28;20554;-79
2021/09/08 03:58:06;;;;;;;51.35;25.42;;;;;;;13.29;100.00;101763.09;5173633;28;20030;-78
2021/09/08 04:00:36;;;;;;;46.35;23.65;;;;;;;13.26;100.00;101758.88;5185299;28;20390;-79
2021/09/08 04:03:08;;;;;;;40.33;21.63;;;;;;;13.22;100.00;101757.50;5173054;28;20022;-79
2021/09/08 04:05:39;;;;;;;42.50;21.25;;;;;;;13.18;100.00;101759.66;5165193;28;20023;-78
2021/09/08 04:08:09;;;;;;;43.72;22.63;;;;;;;13.18;100.00;101753.41;5179391;28;20567;-78
2021/09/08 04:10:40;;;;;;;37.60;21.02;;;;;;;13.15;100.00;101754.59;5176383;28;20495;-78
2021/09/08 04:13:10;;;;;;;46.33;23.05;;;;;;;13.12;100.00;101748.69;5185379;28;20033;-78
2021/09/08 04:15:41;;;;;;;47.00;23.45;;;;;;;13.09;100.00;101754.38;5177106;28;20181;-79
2021/09/08 04:18:11;;;;;;;49.15;25.02;;;;;;;13.06;100.00;101755.56;5183903;28;20286;-78
2021/09/08 04:20:43;;;;;;;58.50;27.38;;;;;;;13.07;100.00;101757.25;5178083;28;20030;-78
2021/09/08 04:23:13;;;;;;;48.50;26.00;;;;;;;13.07;100.00;101754.53;5169004;28;20249;-78
2021/09/08 04:25:44;;;;;;;55.90;26.95;;;;;;;13.09;100.00;101757.06;5179568;28;20558;-78
2021/09/08 04:28:14;;;;;;;56.40;27.20;;;;;;;13.09;100.00;101754.38;5168060;28;20065;-78
2021/09/08 04:30:45;;;;;;;56.28;26.80;;;;;;;13.08;100.00;101750.00;5165604;28;20026;-78
2021/09/08 04:33:15;;;;;;;52.67;26.10;;;;;;;13.04;100.00;101752.16;5180433;28;20116;-78
2021/09/08 04:35:45;;;;;;;46.13;22.85;;;;;;;13.04;100.00;101751.31;5182490;28;20033;-78
2021/09/08 04:38:16;;;;;;;44.83;23.35;;;;;;;13.04;100.00;101737.84;5187875;28;20037;-78
2021/09/08 04:40:47;;;;;;;41.08;22.40;;;;;;;13.05;100.00;101742.22;5186363;28;20025;-78
2021/09/08 04:43:18;;;;;;;47.50;24.25;;;;;;;13.03;100.00;101741.56;5187128;28;20053;-78
2021/09/08 04:45:49;;;;;;;56.08;27.35;;;;;;;13.04;100.00;101746.78;5173520;28;20029;-78
2021/09/08 04:48:19;;;;;;;53.97;26.83;;;;;;;13.06;100.00;101739.41;5178329;28;20065;-78
2021/09/08 04:50:49;;;;;;;55.15;27.95;;;;;;;13.10;100.00;101746.16;5181942;28;20041;-78
2021/09/08 04:53:20;;;;;;;59.83;29.40;;;;;;;13.15;100.00;101740.25;5180256;28;20029;-78
2021/09/08 04:55:50;;;;;;;53.70;26.65;;;;;;;13.21;100.00;101742.31;5179932;28;20075;-78
2021/09/08 04:58:21;;;;;;;50.67;26.95;;;;;;;13.23;100.00;101736.81;5179635;28;20045;-78
2021/09/08 05:00:52;;;;;;;53.92;26.23;;;;;;;13.25;100.00;101742.84;5174595;28;20109;-78
2021/09/08 05:03:22;;;;;;;50.67;24.85;;;;;;;13.24;100.00;101735.78;5173040;28;20114;-78
2021/09/08 05:05:52;;;;;;;50.85;26.45;;;;;;;13.26;100.00;101733.78;5165322;28;20018;-78
2021/09/08 05:08:24;;;;;;;56.95;27.67;;;;;;;13.29;100.00;101730.75;5183367;28;20021;-78
2021/09/08 05:10:54;;;;;;;65.93;28.27;;;;;;;13.31;100.00;101729.59;5185955;28;20037;-79
2021/09/08 05:13:25;;;;;;;59.05;26.95;;;;;;;13.34;100.00;101726.56;5174916;28;20022;-81
2021/09/08 05:15:55;;;;;;;54.75;27.83;;;;;;;13.39;100.00;101726.06;5178146;28;20026;-82
2021/09/08 05:18:25;;;;;;;59.97;26.48;;;;;;;13.43;100.00;101725.59;5184986;28;20323;-82
2021/09/08 05:20:56;;;;;;;51.22;25.92;;;;;;;13.51;100.00;101721.25;5170518;28;20034;-82
2021/09/08 05:23:26;;;;;;;52.95;25.42;;;;;;;13.54;100.00;101727.13;5185813;28;20026;-83
2021/09/08 05:25:57;;;;;;;53.05;26.13;;;;;;;13.58;100.00;101731.19;5171274;28;20030;-82
2021/09/08 05:28:27;;;;;;;48.45;24.50;;;;;;;13.60;100.00;101729.16;5173460;28;20488;-83
2021/09/08 05:30:58;;;;;;;50.70;25.30;;;;;;;13.61;100.00;101730.03;5172669;28;20093;-82
2021/09/08 05:33:31;;;;;;;52.55;25.60;;;;;;;13.62;100.00;101729.88;5173172;28;20348;-78
2021/09/08 05:36:01;;;;;;;50.08;24.50;;;;;;;13.66;100.00;101731.22;5172519;28;20616;-79
2021/09/08 05:38:32;;;;;;;45.65;24.65;;;;;;;13.68;100.00;101731.06;5185198;28;20339;-78
2021/09/08 05:41:05;;;;;;;54.97;25.02;;;;;;;13.73;100.00;101732.25;5182991;28;20026;-78
2021/09/08 05:43:37;;;;;;;50.80;24.48;;;;;;;13.78;100.00;101722.81;5171619;28;20034;-79
2021/09/08 05:46:07;;;;;;;48.95;23.42;;;;;;;13.86;100.00;101731.78;5176132;28;20396;-79
2021/09/08 05:48:38;;;;;;;47.03;23.85;;;;;;;13.93;100.00;101730.09;5174214;28;20030;-79
2021/09/08 05:51:08;;;;;;;49.72;24.48;;;;;;;14.00;100.00;101730.25;5183674;28;20026;-79
2021/09/08 05:53:39;;;;;;;43.38;23.35;;;;;;;14.10;100.00;101728.22;5169047;28;20076;-78
2021/09/08 05:56:09;;;;;;;54.03;26.23;;;;;;;14.19;100.00;101724.53;5171962;28;20086;-78
2021/09/08 05:58:40;;;;;;;51.80;26.05;;;;;;;14.31;100.00;101726.88;5180900;28;20054;-78
2021/09/08 06:01:10;;;;;;;57.35;25.50;;;;;;;14.52;100.00;101721.84;5173301;28;20030;-78
2021/09/08 06:03:41;;;;;;;49.10;24.45;;;;;;;15.52;100.00;101720.31;5167328;28;20065;-79
2021/09/08 06:06:11;;;;;;;46.95;21.25;;;;;;;17.06;100.00;101720.03;5175316;28;20372;-83
2021/09/08 06:08:42;;;;;;;39.28;20.20;;;;;;;18.46;100.00;101716.97;5167178;28;20037;-83
2021/09/08 06:11:12;;;;;;;35.05;18.30;;;;;;;19.58;100.00;101716.81;5190206;28;20022;-81
2021/09/08 06:13:43;;;;;;;33.45;17.40;;;;;;;20.51;100.00;101718.84;5167357;28;20074;-80
2021/09/08 06:16:13;;;;;;;33.17;17.98;;;;;;;21.26;100.00;101717.41;5165101;28;20041;-81
2021/09/08 06:18:44;;;;;;;30.48;16.90;;;;;;;21.90;100.00;101712.91;5167176;28;20022;-83
2021/09/08 06:21:14;;;;;;;36.72;17.67;;;;;;;22.40;100.00;101713.81;5165307;28;20051;-79
2021/09/08 06:23:45;;;;;;;34.58;17.50;;;;;;;22.79;100.00;101714.47;5166515;28;20544;-79
2021/09/08 06:26:15;;;;;;;35.00;17.10;;;;;;;23.18;100.00;101705.03;5167872;28;20700;-79
2021/09/08 06:28:48;;;;;;;31.67;16.92;;;;;;;23.53;100.00;101709.84;5178539;28;20364;-79
2021/09/08 06:31:19;;;;;;;26.60;14.85;;;;;;;23.81;100.00;101714.75;5182551;28;20014;-79
2021/09/08 06:33:50;;;;;;;25.65;15.85;;;;;;;24.13;100.00;101709.00;5180145;28;20426;-79
2021/09/08 06:36:21;;;;;;;29.08;17.17;;;;;;;24.41;100.00;101702.88;5180711;28;20034;-79
2021/09/08 06:38:51;;;;;;;28.10;16.08;;;;;;;24.67;100.00;101704.31;5180766;28;20030;-79
2021/09/08 06:41:22;;;;;;;28.55;15.02;;;;;;;24.97;100.00;101704.16;5187619;28;20117;-80
2021/09/08 06:43:53;;;;;;;25.58;15.68;;;;;;;25.22;100.00;101704.72;5174689;28;20053;-81
2021/09/08 06:46:23;;;;;;;34.20;15.60;;;;;;;25.34;100.00;101707.41;5186088;28;20030;-80
2021/09/08 06:48:54;;;;;;;25.52;15.18;;;;;;;25.30;100.00;101704.34;5173079;28;20054;-81
2021/09/08 06:51:25;;;;;;;23.75;14.82;;;;;;;25.55;100.00;101694.91;5176098;28;20435;-82
2021/09/08 06:53:55;;;;;;;28.65;16.02;;;;;;;26.13;86.63;101687.47;5169087;28;20030;-82
2021/09/08 06:56:26;;;;;;;26.00;15.13;;;;;;;26.31;88.22;101685.31;5166084;28;20030;-83
2021/09/08 06:58:56;;;;;;;25.42;15.63;;;;;;;26.56;80.40;101684.88;5179025;28;20046;-81
2021/09/08 07:01:27;;;;;;;26.10;15.13;;;;;;;26.90;76.55;101678.44;5165878;28;20542;-81
2021/09/08 07:03:57;;;;;;;25.88;15.20;;;;;;;27.18;80.14;101674.72;5185912;28;20460;-82
2021/09/08 07:06:28;;;;;;;23.63;15.38;;;;;;;27.42;70.20;101678.84;5171519;28;20026;-82
2021/09/08 07:08:58;;;;;;;26.35;14.90;;;;;;;27.85;69.75;101671.59;5174393;28;20116;-82
2021/09/08 07:11:29;;;;;;;25.65;15.02;;;;;;;27.94;65.73;101669.19;5197842;28;20028;-80
2021/09/08 07:13:59;;;;;;;24.13;15.20;;;;;;;28.01;62.82;101659.59;5186665;28;20022;-80
2021/09/08 07:16:30;;;;;;;20.33;13.80;;;;;;;27.79;63.73;101658.84;5169014;28;20296;-80
2021/09/08 07:19:00;;;;;;;27.30;15.25;;;;;;;28.24;59.79;101654.81;5166206;28;20054;-81
2021/09/08 07:21:30;;;;;;;24.25;14.60;;;;;;;28.15;59.49;101657.22;5179455;28;20105;-80
2021/09/08 07:24:01;;;;;;;24.88;14.30;;;;;;;28.17;62.39;101660.56;5178234;28;20053;-80
2021/09/08 07:26:33;;;;;;;26.85;13.98;;;;;;;28.35;65.43;101659.31;5179593;28;20034;-80
2021/09/08 07:29:05;;;;;;;26.25;14.98;;;;;;;28.71;59.49;101654.84;5178958;28;20032;-80
2021/09/08 07:31:35;;;;;;;26.48;14.40;;;;;;;29.03;57.78;101654.75;5177842;28;20026;-77
2021/09/08 07:34:06;;;;;;;25.63;14.20;;;;;;;29.16;56.74;101668.06;5179302;28;20092;-78
2021/09/08 07:36:37;;;;;;;23.77;14.23;;;;;;;29.06;57.77;101658.91;5185093;28;20034;-77
2021/09/08 07:39:07;;;;;;;24.50;14.65;;;;;;;28.88;63.42;101654.66;5169015;28;20058;-78
2021/09/08 07:41:39;;;;;;;24.70;15.30;;;;;;;29.55;57.38;101651.06;5166918;28;20030;-77
2021/09/08 07:44:10;;;;;;;25.00;14.02;;;;;;;30.01;54.35;101650.25;5180788;28;20025;-79
2021/09/08 07:46:40;;;;;;;25.50;14.15;;;;;;;30.15;53.70;101656.91;5172255;28;20029;-79
2021/09/08 07:49:11;;;;;;;24.30;13.65;;;;;;;29.90;51.76;101649.44;5171736;28;20030;-79
2021/09/08 07:51:41;;;;;;;25.95;13.98;;;;;;;29.80;55.09;101641.97;5181607;28;20014;-79
2021/09/08 07:54:12;;;;;;;21.58;13.27;;;;;;;29.95;51.74;101645.84;5176411;28;20037;-78
2021/09/08 07:56:42;;;;;;;22.52;13.90;;;;;;;29.85;51.81;101641.97;5173454;28;20030;-79
2021/09/08 07:59:13;;;;;;;23.67;12.35;;;;;;;29.73;53.92;101643.34;5181847;28;20034;-79
2021/09/08 08:01:43;;;;;;;22.42;13.32;;;;;;;30.12;50.51;101644.47;5180844;28;20030;-78
2021/09/08 08:04:14;;;;;;;20.90;13.30;;;;;;;30.29;50.55;101640.59;5173257;28;20037;-79
2021/09/08 08:06:44;;;;;;;21.80;12.60;;;;;;;30.19;49.57;101635.88;5164972;28;20037;-78
2021/09/08 08:09:15;;;;;;;20.40;13.30;;;;;;;30.25;49.58;101636.72;5172143;28;20033;-79
2021/09/08 08:11:45;;;;;;;19.30;12.95;;;;;;;30.30;51.19;101632.00;5175729;28;20038;-78
2021/09/08 08:14:16;;;;;;;23.98;13.43;;;;;;;30.70;49.56;101630.25;5163360;28;20030;-78
2021/09/08 08:16:46;;;;;;;22.92;13.52;;;;;;;31.15;46.64;101637.53;5168434;28;20476;-78
2021/09/08 08:19:17;;;;;;;21.13;12.50;;;;;;;30.95;48.78;101629.31;5170521;28;20049;-81
2021/09/08 08:21:48;;;;;;;25.48;12.10;;;;;;;30.78;48.96;101632.44;5163339;28;20122;-83
2021/09/08 08:24:18;;;;;;;18.55;12.93;;;;;;;31.08;48.47;101631.47;5176238;28;20022;-78
2021/09/08 08:26:49;;;;;;;21.20;11.40;;;;;;;31.18;48.45;101631.41;5181092;28;20018;-78
2021/09/08 08:29:19;;;;;;;20.17;12.07;;;;;;;30.94;50.07;101636.81;5180316;28;20426;-78
2021/09/08 08:31:50;;;;;;;17.45;11.80;;;;;;;30.91;47.43;101634.59;5174877;28;20042;-78
2021/09/08 08:34:20;;;;;;;28.15;12.80;;;;;;;30.99;48.50;101632.34;5171535;28;20476;-81
2021/09/08 08:36:51;;;;;;;20.33;11.45;;;;;;;31.32;46.90;101628.03;5160992;28;20640;-78
2021/09/08 08:39:22;;;;;;;22.75;12.18;;;;;;;31.12;47.66;101628.94;5165137;28;20060;-78
2021/09/08 08:41:52;;;;;;;18.38;12.20;;;;;;;31.23;47.09;101624.16;5168308;28;20030;-78
2021/09/08 08:44:24;;;;;;;19.95;11.60;;;;;;;31.12;48.61;101624.22;5174157;28;20101;-78
2021/09/08 08:46:55;;;;;;;19.98;11.23;;;;;;;30.91;47.15;101625.44;5159123;28;20357;-78
2021/09/08 08:49:26;;;;;;;17.52;11.48;;;;;;;31.13;49.43;101625.06;5169865;28;20372;-79
2021/09/08 08:51:56;;;;;;;22.48;11.70;;;;;;;31.38;46.92;101621.34;5174802;28;20056;-78
2021/09/08 08:54:27;;;;;;;21.58;11.93;;;;;;;31.47;47.10;101622.38;5172756;28;20431;-78
2021/09/08 08:56:57;;;;;;;21.15;11.35;;;;;;;31.61;48.10;101622.56;5162489;28;20100;-79
2021/09/08 08:59:28;;;;;;;17.13;11.23;;;;;;;31.75;48.60;101626.34;5180079;28;20100;-78
2021/09/08 09:02:17;;;;;;;19.17;11.43;;;;;;;32.12;47.44;101622.16;5167057;28;20088;-78
2021/09/08 09:04:50;;;;;;;14.07;9.80;;;;;;;31.99;48.17;101623.66;5180703;28;20101;-78
2021/09/08 09:07:21;;;;;;;20.02;10.65;;;;;;;32.20;45.73;101615.97;5160682;28;20022;-78
2021/09/08 09:10:00;;;;;;;15.35;10.85;;;;;;;32.49;44.62;101621.53;5160235;28;20462;-78
2021/09/08 09:12:40;;;;;;;15.77;10.38;;;;;;;32.30;43.51;101618.63;5179840;28;20032;-78
2021/09/08 09:15:14;;;;;;;21.50;10.43;;;;;;;32.51;43.15;101616.47;5179474;28;20084;-78
2021/09/08 09:17:46;;;;;;;17.45;10.02;;;;;;;32.33;44.06;101612.50;5179912;28;20485;-78
2021/09/08 09:20:21;;;;;;;16.92;10.73;;;;;;;32.25;44.84;101606.75;5177859;28;20030;-79
2021/09/08 09:22:53;;;;;;;17.77;10.45;;;;;;;32.04;43.67;101609.75;5179260;28;20113;-79
2021/09/08 09:25:28;;;;;;;16.33;9.73;;;;;;;32.05;44.56;101602.25;5179724;28;20406;-79
2021/09/08 09:27:59;;;;;;;;;;;;;;;31.90;46.90;101603.22;5164183;28;20029;-78
2021/09/08 09:30:33;;;;;;;19.98;10.27;;;;;;;31.91;45.59;101605.69;5168278;28;19995;-79
2021/09/08 09:33:04;;;;;;;16.33;9.97;;;;;;;31.75;46.90;101598.59;5174508;28;20149;-78
2021/09/08 09:35:34;;;;;;;16.50;9.63;;;;;;;31.64;48.62;101599.81;5158413;28;20266;-78
2021/09/08 09:38:06;;;;;;;17.25;9.85;;;;;;;32.13;44.26;101591.34;5178217;28;20105;-78
2021/09/08 09:40:42;;;;;;;16.30;9.95;;;;;;;32.23;44.03;101602.34;5178015;28;20026;-80
2021/09/08 09:43:13;;;;;;;16.00;9.55;;;;;;;32.28;43.79;101601.44;5169256;28;20065;-79
2021/09/08 09:45:44;;;;;;;23.27;9.70;;;;;;;32.36;46.77;101600.00;5162212;28;20116;-79
2021/09/08 09:48:14;;;;;;;21.17;10.75;;;;;;;32.38;44.66;101592.19;5179211;28;20030;-79
2021/09/08 09:50:46;;;;;;;19.88;9.68;;;;;;;32.42;42.80;101590.47;5176563;28;20076;-79
2021/09/08 09:53:19;;;;;;;25.48;10.52;;;;;;;31.84;43.70;101587.75;5166826;28;20150;-79
2021/09/08 09:55:49;;;;;;;17.70;10.43;;;;;;;31.83;44.37;101588.84;5173652;28;20698;-79
2021/09/08 09:58:20;;;;;;;17.48;10.20;;;;;;;31.81;45.86;101583.59;5182514;28;20315;-78
2021/09/08 10:00:52;;;;;;;17.30;10.82;;;;;;;31.79;46.62;101579.44;5176132;28;20121;-79
2021/09/08 10:03:23;;;;;;;15.32;9.93;;;;;;;31.88;46.30;101586.88;5179189;28;20041;-78
2021/09/08 10:05:53;;;;;;;12.18;8.73;;;;;;;31.90;43.68;101576.28;5172899;28;20017;-78
2021/09/08 10:08:27;;;;;;;14.13;9.07;;;;;;;31.78;47.45;101573.06;5185082;28;20385;-78
2021/09/08 10:11:04;;;;;;;19.23;9.57;;;;;;;30.97;46.37;101566.13;5194133;28;20030;-78
2021/09/08 10:13:41;;;;;;;16.40;8.57;;;;;;;30.10;49.21;101563.66;5172587;28;20029;-78
2021/09/08 10:16:12;;;;;;;18.90;9.45;;;;;;;29.34;51.18;101560.91;5183545;28;20068;-78
2021/09/08 10:18:47;;;;;;;21.90;10.15;;;;;;;29.04;50.22;101553.38;5183181;28;20030;-78
2021/09/08 10:21:19;;;;;;;15.48;9.80;;;;;;;28.49;50.88;101541.84;5182377;28;20022;-78
2021/09/08 10:23:55;;;;;;;16.55;8.60;;;;;;;28.35;55.06;101537.91;5172912;28;20114;-78
2021/09/08 10:26:28;;;;;;;17.75;9.88;;;;;;;28.30;53.72;101537.88;5163211;28;20169;-80
2021/09/08 10:29:07;;;;;;;14.73;9.02;;;;;;;28.40;57.47;101535.19;5180183;28;20013;-78
2021/09/08 10:31:41;;;;;;;17.15;8.90;;;;;;;28.45;56.19;101529.69;5189226;28;20056;-78
2021/09/08 10:34:14;;;;;;;15.85;10.00;;;;;;;28.39;54.60;101523.31;5174766;28;20033;-79
2021/09/08 10:36:46;;;;;;;14.10;8.35;;;;;;;28.49;58.44;101524.47;5177264;28;20050;-78
2021/09/08 10:39:19;;;;;;;12.05;8.45;;;;;;;28.54;58.37;101516.22;5183425;28;20484;-77
2021/09/08 10:41:52;;;;;;;12.98;9.05;;;;;;;28.51;58.28;101517.56;5174906;28;20117;-78
2021/09/08 10:44:45;;;;;;;20.42;10.40;;;;;;;28.65;51.73;101513.22;5171145;28;20022;-78
2021/09/08 10:47:35;;;;;;;14.23;9.13;;;;;;;28.70;50.63;101506.88;5186625;28;20026;-78
2021/09/08 10:50:06;;;;;;;17.00;8.98;;;;;;;28.67;52.80;101498.28;5170246;28;20069;-76
2021/09/08 10:52:36;;;;;;;18.20;9.40;;;;;;;28.79;54.11;101502.47;5188389;28;20707;-79
2021/09/08 10:55:08;;;;;;;16.25;9.13;;;;;;;28.80;56.91;101506.91;5175576;28;20034;-78
2021/09/08 10:57:42;;;;;;;14.40;9.13;;;;;;;28.85;55.97;101498.63;5182372;28;20034;-79
2021/09/08 11:00:19;;;;;;;14.38;9.45;;;;;;;28.83;56.18;101491.72;5168962;28;20030;-78
2021/09/08 11:02:50;;;;;;;18.00;9.23;;;;;;;28.94;55.79;101487.91;5168293;28;20022;-78
2021/09/08 11:05:20;;;;;;;17.55;9.55;;;;;;;28.97;53.95;101487.38;5168993;28;20037;-80
2021/09/08 11:07:52;;;;;;;16.05;8.95;;;;;;;28.98;52.60;101480.75;5170286;28;20026;-79
2021/09/08 11:10:27;;;;;;;17.95;9.23;;;;;;;28.92;53.84;101470.78;5172643;28;20149;-77
2021/09/08 11:13:00;;;;;;;11.88;8.23;;;;;;;28.76;56.54;101474.56;5187734;28;20483;-78
2021/09/08 11:15:36;;;;;;;15.45;9.07;;;;;;;28.99;57.09;101476.03;5168486;28;20034;-78
2021/09/08 11:18:12;;;;;;;13.15;8.48;;;;;;;29.05;53.16;101473.00;5182769;28;20034;-81
2021/09/08 11:20:43;;;;;;;16.20;9.38;;;;;;;28.97;51.03;101459.75;5188029;28;20037;-80
2021/09/08 11:23:15;;;;;;;16.38;9.63;;;;;;;29.02;53.42;101462.53;5175074;28;20037;-80
2021/09/08 11:25:45;;;;;;;21.67;9.23;;;;;;;28.99;54.41;101457.53;5176896;28;20058;-80